Lyttelton, New Zealand
Current Conditions -  °F | °C
As of 11:00 AM on Friday 19 Dec 2014 (Local Time) from NZCH Reporting Station
Clear Clear  
Wind Chill: 73°   Ceiling: Unl
Heat Index: 73°   Visibility: 6mi
Dew Point: 55°   Wind: 10mph
Humidity: 53%   Direction: 70°ENE
Pressure: 29.85"   Gusts: NA
Location:  43.6°S, 172.72°E
Report Text: NZCH 182300Z AUTO 07009KT 040V100 9999 NCD 23/13 Q1011 NOSIG
Loading
Personal Weather Stations






























Interactive Weather Map New forecast layout! Learn more

10-Day Weather Forecast

Advertisements
Track Severe Weather on mobile